地図

経路データ

SID SEASON NUMBER BASIN SUBBASIN NAME ISO_TIME NATURE LAT LON WMO_WIND WMO_PRES WMO_AGENCY TRACK_TYPE DIST2LAND LANDFALL IFLAG USA_AGENCY USA_ATCF_ID USA_LAT USA_LON USA_RECORD USA_STATUS USA_WIND USA_PRES USA_SSHS USA_R34_NE USA_R34_SE USA_R34_SW USA_R34_NW USA_R50_NE USA_R50_SE USA_R50_SW USA_R50_NW USA_R64_NE USA_R64_SE USA_R64_SW USA_R64_NW USA_POCI USA_ROCI USA_RMW USA_EYE TOKYO_LAT TOKYO_LON TOKYO_GRADE TOKYO_WIND TOKYO_PRES TOKYO_R50_DIR TOKYO_R50_LONG TOKYO_R50_SHORT TOKYO_R30_DIR TOKYO_R30_LONG TOKYO_R30_SHORT TOKYO_LAND CMA_LAT CMA_LON CMA_CAT CMA_WIND CMA_PRES HKO_LAT HKO_LON HKO_CAT HKO_WIND HKO_PRES NEWDELHI_LAT NEWDELHI_LON NEWDELHI_GRADE NEWDELHI_WIND NEWDELHI_PRES NEWDELHI_CI NEWDELHI_DP NEWDELHI_POCI REUNION_LAT REUNION_LON REUNION_TYPE REUNION_WIND REUNION_PRES REUNION_TNUM REUNION_CI REUNION_RMW REUNION_R34_NE REUNION_R34_SE REUNION_R34_SW REUNION_R34_NW REUNION_R50_NE REUNION_R50_SE REUNION_R50_SW REUNION_R50_NW REUNION_R64_NE REUNION_R64_SE REUNION_R64_SW REUNION_R64_NW BOM_LAT BOM_LON BOM_TYPE BOM_WIND BOM_PRES BOM_TNUM BOM_CI BOM_RMW BOM_R34_NE BOM_R34_SE BOM_R34_SW BOM_R34_NW BOM_R50_NE BOM_R50_SE BOM_R50_SW BOM_R50_NW BOM_R64_NE BOM_R64_SE BOM_R64_SW BOM_R64_NW BOM_ROCI BOM_POCI BOM_EYE BOM_POS_METHOD BOM_PRES_METHOD NADI_LAT NADI_LON NADI_CAT NADI_WIND NADI_PRES WELLINGTON_LAT WELLINGTON_LON WELLINGTON_WIND WELLINGTON_PRES DS824_LAT DS824_LON DS824_STAGE DS824_WIND DS824_PRES TD9636_LAT TD9636_LON TD9636_STAGE TD9636_WIND TD9636_PRES TD9635_LAT TD9635_LON TD9635_WIND TD9635_PRES TD9635_ROCI NEUMANN_LAT NEUMANN_LON NEUMANN_CLASS NEUMANN_WIND NEUMANN_PRES MLC_LAT MLC_LON MLC_CLASS MLC_WIND MLC_PRES USA_GUST BOM_GUST BOM_GUST_PER REUNION_GUST REUNION_GUST_PER USA_SEAHGT USA_SEARAD_NE USA_SEARAD_SE USA_SEARAD_SW USA_SEARAD_NW STORM_SPEED STORM_DIR
2022161N12266 2022 30 EP MM BLAS 2022-06-10 00:00:00 NR 11.8000 -94.0000 PROVISIONAL 359 347 O_____________ nhc_working_bt EP022022 11.8000 -94.0000 DB 20 1008 -3 1009 120 90 6 330
2022161N12266 2022 30 EP MM BLAS 2022-06-10 03:00:00 NR 12.0575 -94.1499 PROVISIONAL 338 335 P_____________ EP022022 12.0575 -94.1499 DB 20 1008 -3 1009 120 90 6 330
2022161N12266 2022 30 EP MM BLAS 2022-06-10 06:00:00 NR 12.3000 -94.3000 PROVISIONAL 335 326 O_____________ nhc_working_bt EP022022 12.3000 -94.3000 DB 20 1008 -3 1009 120 90 5 327
2022161N12266 2022 30 EP MM BLAS 2022-06-10 09:00:00 NR 12.5150 -94.4500 PROVISIONAL 334 326 P_____________ EP022022 12.5150 -94.4500 DB 20 1008 -3 1009 120 90 5 324
2022161N12266 2022 30 EP MM BLAS 2022-06-10 12:00:00 NR 12.7000 -94.6000 PROVISIONAL 326 326 O_____________ nhc_working_bt EP022022 12.7000 -94.6000 DB 20 1008 -3 1009 120 90 4 319
2022161N12266 2022 30 EP MM BLAS 2022-06-10 15:00:00 NR 12.8500 -94.7500 PROVISIONAL 334 326 P_____________ EP022022 12.8500 -94.7500 DB 20 1008 -3 1009 120 90 4 316
2022161N12266 2022 30 EP MM BLAS 2022-06-10 18:00:00 NR 13.0000 -94.9000 PROVISIONAL 326 308 O_____________ nhc_working_bt EP022022 13.0000 -94.9000 DB 20 1008 -3 1009 120 90 5 321
2022161N12266 2022 30 EP MM BLAS 2022-06-10 21:00:00 NR 13.2000 -95.0425 PROVISIONAL 308 279 P_____________ EP022022 13.2000 -95.0425 DB 20 1008 -3 1009 120 90 5 324
2022161N12266 2022 30 EP MM BLAS 2022-06-11 00:00:00 NR 13.4000 -95.2000 PROVISIONAL 279 250 O_____________ nhc_working_bt EP022022 13.4000 -95.2000 DB 20 1008 -3 1009 120 90 5 318
2022161N12266 2022 30 EP MM BLAS 2022-06-11 03:00:00 NR 13.5725 -95.3850 PROVISIONAL 250 233 P_____________ EP022022 13.5725 -95.3850 DB 20 1008 -3 1009 120 90 5 308
2022161N12266 2022 30 EP MM BLAS 2022-06-11 06:00:00 NR 13.7000 -95.6000 PROVISIONAL 233 217 O_____________ nhc_working_bt EP022022 13.7000 -95.6000 DB 20 1008 -3 1009 120 90 5 295
2022161N12266 2022 30 EP MM BLAS 2022-06-11 09:00:00 NR 13.7725 -95.8350 PROVISIONAL 217 208 P_____________ EP022022 13.7725 -95.8350 DB 20 1008 -3 1009 120 90 5 282
2022161N12266 2022 30 EP MM BLAS 2022-06-11 12:00:00 NR 13.8000 -96.1000 PROVISIONAL 208 202 O_____________ nhc_working_bt EP022022 13.8000 -96.1000 DB 20 1008 -3 1009 120 90 5 275
2022161N12266 2022 30 EP MM BLAS 2022-06-11 15:00:00 NR 13.8224 -96.3775 PROVISIONAL 202 201 P_____________ EP022022 13.8224 -96.3775 DB 20 1008 -3 1009 120 90 6 270
2022161N12266 2022 30 EP MM BLAS 2022-06-11 18:00:00 NR 13.8000 -96.7000 PROVISIONAL 201 201 O_____________ nhc_working_bt EP022022 13.8000 -96.7000 DB 20 1008 -3 1009 120 90 7 263
2022161N12266 2022 30 EP MM BLAS 2022-06-11 21:00:00 NR 13.7374 -97.0699 PROVISIONAL 219 219 P_____________ EP022022 13.7374 -97.0699 DB 20 1008 -3 1009 120 90 8 256
2022161N12266 2022 30 EP MM BLAS 2022-06-12 00:00:00 NR 13.6000 -97.5000 PROVISIONAL 243 243 O_____________ nhc_working_bt EP022022 13.6000 -97.5000 DB 20 1008 -3 1009 120 90 10 248
2022161N12266 2022 30 EP MM BLAS 2022-06-12 03:00:00 NR 13.3800 -97.9850 PROVISIONAL 288 288 P_____________ EP022022 13.3800 -97.9850 DB 20 1008 -3 1009 120 90 11 243
2022161N12266 2022 30 EP MM BLAS 2022-06-12 06:00:00 NR 13.1000 -98.5000 PROVISIONAL 333 333 O_____________ nhc_working_bt EP022022 13.1000 -98.5000 DB 20 1008 -3 1009 120 90 12 239
2022161N12266 2022 30 EP MM BLAS 2022-06-12 09:00:00 NR 12.7626 -99.0377 PROVISIONAL 380 380 P_____________ EP022022 12.7626 -99.0377 DB 20 1008 -3 1009 120 90 11 238
2022161N12266 2022 30 EP MM BLAS 2022-06-12 12:00:00 NR 12.5000 -99.5000 PROVISIONAL 432 432 O_____________ nhc_working_bt EP022022 12.5000 -99.5000 DB 20 1008 -3 1009 120 90 8 247
2022161N12266 2022 30 EP MM BLAS 2022-06-12 15:00:00 NR 12.4548 -99.7798 PROVISIONAL 444 444 P_____________ EP022022 12.4548 -99.7798 DB 22 1007 -3 1009 120 90 5 270
2022161N12266 2022 30 EP MM BLAS 2022-06-12 18:00:00 NR 12.5000 -100.000 PROVISIONAL 451 451 O_____________ nhc_working_bt EP022022 12.5000 -100.000 DB 25 1007 -3 1009 120 90 35 5 277
2022161N12266 2022 30 EP MM BLAS 2022-06-12 21:00:00 NR 12.5150 -100.292 PROVISIONAL 463 463 P_____________ EP022022 12.5150 -100.292 DB 25 1007 -3 1009 180 90 6 270
2022161N12266 2022 30 EP MM BLAS 2022-06-13 00:00:00 NR 12.5000 -100.600 PROVISIONAL 476 476 O_____________ nhc_working_bt EP022022 12.5000 -100.600 DB 25 1007 -3 1010 240 90 35 6 257
2022161N12266 2022 30 EP MM BLAS 2022-06-13 03:00:00 NR 12.3774 -100.885 PROVISIONAL 498 498 P_____________ EP022022 12.3774 -100.885 DB 25 1007 -3 1010 240 90 6 251
2022161N12266 2022 30 EP MM BLAS 2022-06-13 06:00:00 DS 12.3000 -101.200 PROVISIONAL 518 518 O_____________ nhc_working_bt EP022022 12.3000 -101.200 LO 25 1007 -3 1010 240 90 7 272
2022161N12266 2022 30 EP MM BLAS 2022-06-13 09:00:00 DS 12.4051 -101.615 PROVISIONAL 523 516 P_____________ EP022022 12.4051 -101.615 LO 25 1007 -3 1010 240 90 8 291
2022161N12266 2022 30 EP MM BLAS 2022-06-13 12:00:00 DS 12.6000 -102.000 PROVISIONAL 521 512 O_____________ nhc_working_bt EP022022 12.6000 -102.000 LO 25 1007 -3 1010 240 90 35 7 302
2022161N12266 2022 30 EP MM BLAS 2022-06-13 15:00:00 DS 12.7999 -102.260 PROVISIONAL 518 500 P_____________ EP022022 12.7999 -102.260 LO 27 1007 -3 1010 240 90 6 316
2022161N12266 2022 30 EP MM BLAS 2022-06-13 18:00:00 DS 13.0000 -102.400 PROVISIONAL 500 479 O_____________ nhc_working_bt EP022022 13.0000 -102.400 LO 30 1007 -3 1010 240 90 40 4 335
2022161N12266 2022 30 EP MM BLAS 2022-06-13 21:00:00 DS 13.1650 -102.430 PROVISIONAL 479 468 P_____________ EP022022 13.1650 -102.430 LO 30 1006 -3 1009 210 90 3 0
2022161N12266 2022 30 EP MM BLAS 2022-06-14 00:00:00 TS 13.3000 -102.400 PROVISIONAL 468 458 O_____________ nhc_working_bt EP022022 13.3000 -102.400 TD 30 1006 -1 1008 180 90 40 2 0
2022161N12266 2022 30 EP MM BLAS 2022-06-14 03:00:00 TS 13.4000 -102.422 PROVISIONAL 458 447 P_____________ EP022022 13.4000 -102.422 TD 32 1005 -1 1008 180 65 2 8
2022161N12266 2022 30 EP MM BLAS 2022-06-14 06:00:00 TS 13.5000 -102.400 PROVISIONAL 447 433 O_____________ nhc_working_bt EP022022 13.5000 -102.400 TS 35 1005 0 40 40 1008 180 40 40 3 39
2022161N12266 2022 30 EP MM BLAS 2022-06-14 09:00:00 TS 13.6092 -102.250 PROVISIONAL 433 405 P_____________ EP022022 13.6125 -102.258 TS 37 1003 0 40 40 1008 180 40 4 44
2022161N12266 2022 30 EP MM BLAS 2022-06-14 12:00:00 TS 13.8000 -102.100 PROVISIONAL 405 370 O_____________ nhc_working_bt EP022022 13.8000 -102.100 TS 40 1002 0 40 40 1008 180 40 50 6 22
2022161N12266 2022 30 EP MM BLAS 2022-06-14 15:00:00 TS 14.1560 -102.023 PROVISIONAL 359 327 P_____________ EP022022 14.1575 -102.020 TS 42 1001 0 45 50 1008 180 40 7 8
2022161N12266 2022 30 EP MM BLAS 2022-06-14 18:00:00 TS 14.5000 -102.000 PROVISIONAL 327 306 O_____________ nhc_working_bt EP022022 14.5000 -102.000 TS 45 1000 0 50 60 20 30 1008 180 40 55 12 30 30 5 2
2022161N12266 2022 30 EP MM BLAS 2022-06-14 21:00:00 TS 14.6967 -102.022 PROVISIONAL 306 295 P_____________ EP022022 14.6450 -102.027 TS 45 1000 0 55 60 20 30 1008 180 40 12 30 37 3 344
2022161N12266 2022 30 EP MM BLAS 2022-06-15 00:00:00 TS 14.8333 -102.100 PROVISIONAL 299 282 O_____________ nhc_working_bt EP022022 14.7000 -102.100 TS 45 1000 0 60 60 20 30 1008 180 40 55 12 30 45 30 4 330
2022161N12266 2022 30 EP MM BLAS 2022-06-15 03:00:00 TS 15.0208 -102.221 PROVISIONAL 282 277 P_____________ EP022022 14.7575 -102.193 TS 50 997 0 55 55 30 35 15 1008 180 35 12 45 45 30 4 320
2022161N12266 2022 30 EP MM BLAS 2022-06-15 06:00:00 TS 15.1333 -102.367 PROVISIONAL 282 282 O_____________ nhc_working_bt EP022022 14.8000 -102.300 TS 55 994 0 50 50 40 40 30 1008 180 30 65 12 60 45 30 3 280
2022161N12266 2022 30 EP MM BLAS 2022-06-15 09:00:00 TS 15.0675 -102.503 PROVISIONAL 288 288 P_____________ EP022022 14.8425 -102.393 TS 60 991 0 45 45 40 40 25 1008 190 20 12 45 52 30 3 237
2022161N12266 2022 30 EP MM BLAS 2022-06-15 12:00:00 TS 14.9667 -102.633 PROVISIONAL 303 303 O_____________ nhc_working_bt EP022022 14.9000 -102.500 HU 65 988 1 40 40 40 40 20 20 20 20 11 1008 200 10 75 12 30 60 30 2 247
2022161N12266 2022 30 EP MM BLAS 2022-06-15 15:00:00 TS 14.9700 -102.740 PROVISIONAL 309 309 P_____________ EP022022 14.9850 -102.635 HU 70 984 1 50 60 60 60 25 30 30 25 13 1008 200 12 12 45 67 45 2 287
2022161N12266 2022 30 EP MM BLAS 2022-06-15 18:00:00 TS 15.0333 -102.867 PROVISIONAL 321 312 O_____________ nhc_working_bt EP022022 15.1000 -102.800 HU 75 980 1 60 80 80 80 30 40 40 30 15 15 1008 200 15 90 12 60 75 60 60 3 298
2022161N12266 2022 30 EP MM BLAS 2022-06-15 21:00:00 TS 15.1300 -103.052 PROVISIONAL 324 309 P_____________ EP022022 15.2500 -102.985 HU 75 980 1 60 80 80 80 30 40 40 30 15 15 1007 190 15 12 67 90 60 60 5 301
2022161N12266 2022 30 EP MM BLAS 2022-06-16 00:00:00 TS 15.2667 -103.267 PROVISIONAL 309 303 O_____________ nhc_working_bt EP022022 15.4000 -103.200 HU 75 980 1 60 80 80 80 30 40 40 30 15 15 1006 180 15 90 12 75 105 60 60 5 307
2022161N12266 2022 30 EP MM BLAS 2022-06-16 03:00:00 TS 15.4358 -103.468 PROVISIONAL 306 288 P_____________ EP022022 15.5075 -103.435 HU 75 980 1 60 80 80 80 30 40 40 30 15 15 1006 180 15 12 75 105 60 60 5 309
2022161N12266 2022 30 EP MM BLAS 2022-06-16 06:00:00 TS 15.6000 -103.700 PROVISIONAL 292 285 O_____________ nhc_working_bt EP022022 15.6000 -103.700 HU 75 981 1 60 80 80 80 30 40 40 30 15 15 1006 180 15 90 12 75 105 60 60 6 299
2022161N12266 2022 30 EP MM BLAS 2022-06-16 09:00:00 TS 15.7099 -103.973 PROVISIONAL 292 285 P_____________ EP022022 15.6999 -103.978 HU 75 980 1 65 80 80 80 35 40 40 30 15 15 1006 180 15 12 97 127 90 75 6 289
2022161N12266 2022 30 EP MM BLAS 2022-06-16 12:00:00 TS 15.8000 -104.300 PROVISIONAL 292 288 O_____________ nhc_working_bt EP022022 15.8000 -104.300 HU 75 980 1 70 80 80 80 40 40 40 30 11 15 15 1007 180 15 90 12 120 150 120 90 7 284
2022161N12266 2022 30 EP MM BLAS 2022-06-16 15:00:00 TS 15.8850 -104.678 PROVISIONAL 297 297 P_____________ EP022022 15.8850 -104.678 HU 75 980 1 90 80 80 80 40 40 40 30 13 15 15 1007 165 15 12 120 150 120 90 8 285
2022161N12266 2022 30 EP MM BLAS 2022-06-16 18:00:00 TS 16.0000 -105.100 PROVISIONAL 308 305 O_____________ nhc_working_bt EP022022 16.0000 -105.100 HU 75 980 1 110 80 80 80 40 40 40 30 15 15 15 1007 150 15 90 12 120 150 120 90 9 290
2022161N12266 2022 30 EP MM BLAS 2022-06-16 21:00:00 TS 16.1850 -105.542 PROVISIONAL 316 316 P_____________ EP022022 16.1850 -105.542 HU 75 980 1 115 80 80 85 40 40 40 30 15 15 15 1007 155 15 12 150 180 105 120 10 295
2022161N12266 2022 30 EP MM BLAS 2022-06-17 00:00:00 TS 16.4000 -106.000 PROVISIONAL 338 331 O_____________ nhc_working_bt EP022022 16.4000 -106.000 HU 75 980 1 120 80 80 90 40 40 40 30 15 15 15 1007 160 15 90 12 180 210 90 150 9 295
2022161N12266 2022 30 EP MM BLAS 2022-06-17 03:00:00 TS 16.5796 -106.415 PROVISIONAL 336 336 P_____________ EP022022 16.5998 -106.435 HU 75 980 1 120 80 80 90 40 40 35 35 15 15 15 1007 160 15 10 295
2022161N12266 2022 30 EP MM BLAS 2022-06-17 06:00:00 TS 16.8000 -106.900 PROVISIONAL 348 346 O_____________ nhc_working_bt EP022022 16.8000 -106.900 HU 75 980 1 120 80 80 90 40 40 30 40 15 15 15 1007 160 15 13 298
2022161N12266 2022 30 EP MM BLAS 2022-06-17 09:00:00 TS 17.1711 -107.565 PROVISIONAL 368 368 P_____________ EP022022 17.0074 -107.428 HU 75 980 1 120 80 80 90 40 40 30 40 15 15 15 1007 160 15 15 297
2022161N12266 2022 30 EP MM BLAS 2022-06-17 12:00:00 TS 17.4667 -108.267 PROVISIONAL 400 400 O_____________ nhc_working_bt EP022022 17.2000 -108.000 HU 75 980 1 120 80 80 90 40 40 30 40 15 15 15 1007 160 15 100 12 180 210 90 150 13 283
2022161N12266 2022 30 EP MM BLAS 2022-06-17 15:00:00 TS 17.4541 -108.897 PROVISIONAL 452 452 P_____________ EP022022 17.3726 -108.622 HU 75 980 1 120 80 75 90 40 40 30 40 15 15 1007 180 15 12 195 180 105 142 11 265
2022161N12266 2022 30 EP MM BLAS 2022-06-17 18:00:00 TS 17.3667 -109.400 PROVISIONAL 503 503 O_____________ nhc_working_bt EP022022 17.5000 -109.200 HU 75 980 1 120 80 70 90 40 40 30 40 15 15 11 1008 200 15 90 12 210 150 120 135 8 268
2022161N12266 2022 30 EP MM BLAS 2022-06-17 21:00:00 TS 17.4297 -109.709 PROVISIONAL 529 529 P_____________ EP022022 17.5648 -109.653 HU 70 983 1 120 80 70 90 40 40 30 40 15 15 11 1008 200 15 12 210 165 120 142 5 288
2022161N12266 2022 30 EP MM BLAS 2022-06-18 00:00:00 TS 17.5333 -109.933 PROVISIONAL 541 541 O_____________ nhc_working_bt EP022022 17.6000 -110.000 HU 65 987 1 120 80 70 90 40 40 30 40 15 15 11 1008 200 15 80 12 210 180 120 150 5 290
2022161N12266 2022 30 EP MM BLAS 2022-06-18 03:00:00 TS 17.6142 -110.234 PROVISIONAL 562 562 P_____________ EP022022 17.6424 -110.288 HU 60 988 0 95 75 60 75 30 30 30 1008 200 15 12 195 180 120 150 6 287
2022161N12266 2022 30 EP MM BLAS 2022-06-18 06:00:00 TS 17.7000 -110.500 PROVISIONAL 583 573 O_____________ nhc_working_bt EP022022 17.7000 -110.500 TS 55 990 0 70 70 50 60 20 20 20 1008 200 15 65 12 180 180 120 150 4 293
2022161N12266 2022 30 EP MM BLAS 2022-06-18 09:00:00 TS 17.7824 -110.655 PROVISIONAL 575 563 P_____________ EP022022 17.7774 -110.650 TS 52 992 0 70 70 50 60 20 20 1008 200 17 12 180 180 120 150 3 305
2022161N12266 2022 30 EP MM BLAS 2022-06-18 12:00:00 TS 17.9000 -110.800 PROVISIONAL 565 546 O_____________ nhc_working_bt EP022022 17.9000 -110.800 TS 50 995 0 70 70 50 60 20 20 1008 200 20 60 12 180 180 120 150 5 310
2022161N12266 2022 30 EP MM BLAS 2022-06-18 15:00:00 TS 18.0926 -111.050 PROVISIONAL 546 531 P_____________ EP022022 18.0926 -111.050 TS 47 996 0 70 70 60 1008 200 25 12 180 180 105 135 6 310
2022161N12266 2022 30 EP MM BLAS 2022-06-18 18:00:00 TS 18.3000 -111.300 PROVISIONAL 531 513 O_____________ nhc_working_bt EP022022 18.3000 -111.300 TS 45 998 0 70 70 60 1008 200 30 55 12 180 180 90 120 5 314
2022161N12266 2022 30 EP MM BLAS 2022-06-18 21:00:00 TS 18.4649 -111.450 PROVISIONAL 516 505 P_____________ EP022022 18.4649 -111.450 TS 45 998 0 70 70 60 1008 200 30 12 150 135 90 105 4 317
2022161N12266 2022 30 EP MM BLAS 2022-06-19 00:00:00 TS 18.6000 -111.600 PROVISIONAL 508 501 O_____________ nhc_working_bt EP022022 18.6000 -111.600 TS 45 998 0 70 70 60 1008 200 30 55 12 120 90 90 90 4 304
2022161N12266 2022 30 EP MM BLAS 2022-06-19 03:00:00 TS 18.7100 -111.835 PROVISIONAL 505 499 P_____________ EP022022 18.7151 -111.865 TS 42 999 0 65 65 55 1008 200 30 12 120 90 90 90 5 293
2022161N12266 2022 30 EP MM BLAS 2022-06-19 06:00:00 TS 18.8000 -112.100 PROVISIONAL 507 507 O_____________ nhc_working_bt EP022022 18.8000 -112.100 TS 40 1001 0 60 60 50 1008 200 30 50 12 120 90 90 90 6 288
2022161N12266 2022 30 EP MM BLAS 2022-06-19 09:00:00 TS 18.8910 -112.407 PROVISIONAL 512 512 P_____________ EP022022 18.8574 -112.173 TS 40 1001 0 60 60 50 1008 200 30 12 105 75 75 75 5 289
2022161N12266 2022 30 EP MM BLAS 2022-06-19 12:00:00 TS 18.9667 -112.600 PROVISIONAL 512 507 O_____________ nhc_working_bt EP022022 18.9000 -112.200 TS 40 1001 0 60 60 50 1008 200 30 50 12 90 60 60 60 2 332
2022161N12266 2022 30 EP MM BLAS 2022-06-19 15:00:00 TS 19.0268 -112.477 PROVISIONAL 507 487 P_____________ EP022022 18.9500 -112.285 TS 37 1002 0 60 50 1008 200 30 3 68
2022161N12266 2022 30 EP MM BLAS 2022-06-19 18:00:00 TS 19.0667 -112.333 PROVISIONAL 487 487 O_____________ nhc_working_bt EP022022 19.0000 -112.400 TS 35 1004 0 60 50 1009 200 30 45 1 21
2022161N12266 2022 30 EP MM BLAS 2022-06-19 21:00:00 TS 19.0908 -112.469 PROVISIONAL 497 497 P_____________ EP022022 19.0575 -112.542 TS 35 1004 0 60 50 1009 200 30 3 275
2022161N12266 2022 30 EP MM BLAS 2022-06-20 00:00:00 TS 19.1000 -112.700 PROVISIONAL 508 508 O_____________ nhc_working_bt EP022022 19.1000 -112.700 TS 35 1004 0 60 50 1009 200 30 45 12 75 60 60 4 271
2022161N12266 2022 30 EP MM BLAS 2022-06-20 03:00:00 TS 19.0950 -112.893 PROVISIONAL 520 520 P_____________ EP022022 19.1000 -112.850 TS 32 1004 -1 1009 200 30 3 270
2022161N12266 2022 30 EP MM BLAS 2022-06-20 06:00:00 TS 19.1000 -113.067 PROVISIONAL 532 532 O_____________ nhc_working_bt EP022022 19.1000 -113.000 TD 30 1005 -1 1010 200 30 40 3 279
2022161N12266 2022 30 EP MM BLAS 2022-06-20 09:00:00 TS 19.1392 -113.197 PROVISIONAL 539 530 P_____________ EP022022 19.1375 -113.150 TD 30 1005 -1 1009 190 35 2 295
2022161N12266 2022 30 EP MM BLAS 2022-06-20 12:00:00 TS 19.2000 -113.300 PROVISIONAL 536 O_____________ nhc_working_bt EP022022 19.2000 -113.300 TD 30 1005 -1 1009 180 40 40 2 303

IBTrACS Databaseについて

本データベースは、米国NOAAが公開する1842年以降の世界の熱帯低気圧のベストトラックデータアーカイブInternational Best Track Archive for Climate Stewardship (IBTrACS)を、ウェブで閲覧しやすい形式に変換したものです。

最終更新日:2022-07-01